Time;durP1;ratioP1;P1;durP2;ratioP2;P2;SDS_P1;SDS_P2;PMS_P1;PMS_P2;Temp;Humidity;BMP_temperature;BMP_pressure;BME280_temperature;BME280_humidity;BME280_pressure;Samples;Min_cycle;Max_cycle;Signal;HPM_P1;HPM_P2
2022/01/29 00:00:17;;;;;;;;;;;;;;;;;;5093336;28;19916;-74
2022/01/29 00:02:42;;;;;;;;;;;;;;;;;;5093240;28;19920;-75
2022/01/29 00:05:09;;;;;;;;;;;;;;;;;;5093373;28;19925;-76
2022/01/29 00:07:35;;;;;;;;;;;;;;;;;;5091297;28;19927;-72
2022/01/29 00:10:03;;;;;;;;;;;;;;;;;;5093196;28;19916;-78
2022/01/29 00:12:29;;;;;;;;;;;;;;;;;;5093419;28;19970;-74
2022/01/29 00:14:55;;;;;;;;;;;;;;;;;;5093437;28;19916;-72
2022/01/29 00:17:20;;;;;;;;;;;;;;;;;;5093517;28;19923;-79
2022/01/29 00:19:45;;;;;;;;;;;;;;;;;;5093276;28;19924;-71
2022/01/29 00:22:11;;;;;;;;;;;;;;;;;;5093366;28;19920;-81
2022/01/29 00:24:36;;;;;;;;;;;;;;;;;;5096962;28;19915;-72
2022/01/29 00:27:08;;;;;;;;;;;;;;;;;;5113387;28;20310;-79
2022/01/29 00:29:34;;;;;;;;;;;;;;;;;;5114032;28;20015;-76
2022/01/29 00:32:00;;;;;;;;;;;;;;;;;;5113649;28;19916;-75
2022/01/29 00:34:25;;;;;;;;;;;;;;;;;;5113610;28;19930;-75
2022/01/29 00:36:51;;;;;;;;;;;;;;;;;;5113620;28;20406;-71
2022/01/29 00:39:16;;;;;;;;;;;;;;;;;;5113561;28;19923;-74
2022/01/29 00:41:42;;;;;;;;;;;;;;;;;;5114725;28;20364;-76
2022/01/29 00:44:07;;;;;;;;;;;;;;;;;;5117310;28;19922;-76
2022/01/29 00:46:32;;;;;;;;;;;;;;;;;;5117043;28;19922;-75
2022/01/29 00:48:58;;;;;;;;;;;;;;;;;;5115759;28;19922;-77
2022/01/29 00:51:23;;;;;;;;;;;;;;;;;;5117181;28;19974;-74
2022/01/29 00:53:49;;;;;;;;;;;;;;;;;;5117166;28;20018;-75
2022/01/29 00:56:14;;;;;;;;;;;;;;;;;;5117177;28;19920;-80
2022/01/29 00:58:40;;;;;;;;;;;;;;;;;;5117045;28;19916;-73
2022/01/29 01:01:06;;;;;;;;;;;;;;;;;;5115636;28;19923;-77
2022/01/29 01:03:31;;;;;;;;;;;;;;;;;;5116990;28;19957;-74
2022/01/29 01:05:57;;;;;;;;;;;;;;;;;;5116804;28;20406;-79
2022/01/29 01:08:22;;;;;;;;;;;;;;;;;;5116468;28;19965;-72
2022/01/29 01:10:48;;;;;;;;;;;;;;;;;;5116802;28;19920;-81
2022/01/29 01:13:13;;;;;;;;;;;;;;;;;;5116965;28;19923;-75
2022/01/29 01:15:38;;;;;;;;;;;;;;;;;;5116874;28;19967;-80
2022/01/29 01:18:04;;;;;;;;;;;;;;;;;;5116650;28;20402;-77
2022/01/29 01:20:29;;;;;;;;;;;;;;;;;;5116408;28;19916;-76
2022/01/29 01:22:55;;;;;;;;;;;;;;;;;;5116982;28;19943;-75
2022/01/29 01:25:20;;;;;;;;;;;;;;;;;;5116700;28;20462;-71
2022/01/29 01:27:45;;;;;;;;;;;;;;;;;;5116479;28;19969;-82
2022/01/29 01:30:11;;;;;;;;;;;;;;;;;;5116395;28;19959;-71
2022/01/29 01:32:37;;;;;;;;;;;;;;;;;;5115138;28;19920;-72
2022/01/29 01:35:17;;;;;;;;;;;;;;;;;;5116477;28;19926;-80
2022/01/29 01:37:52;;;;;;;;;;;;;;;;;;5116534;28;19968;-72
2022/01/29 01:40:18;;;;;;;;;;;;;;;;;;5116068;28;20061;-80
2022/01/29 01:42:44;;;;;;;;;;;;;;;;;;5116169;28;19920;-77
2022/01/29 01:45:09;;;;;;;;;;;;;;;;;;5116302;28;19916;-71
2022/01/29 01:47:35;;;;;;;;;;;;;;;;;;5116228;28;19911;-75
2022/01/29 01:50:00;;;;;;;;;;;;;;;;;;5115817;28;19915;-72
2022/01/29 01:52:26;;;;;;;;;;;;;;;;;;5115479;28;20363;-78
2022/01/29 01:54:51;;;;;;;;;;;;;;;;;;5115324;28;19922;-72
2022/01/29 01:57:17;;;;;;;;;;;;;;;;;;5115943;28;20011;-72
2022/01/29 01:59:43;;;;;;;;;;;;;;;;;;5115880;28;19959;-78
2022/01/29 02:02:08;;;;;;;;;;;;;;;;;;5115730;28;19923;-78
2022/01/29 02:04:34;;;;;;;;;;;;;;;;;;5115821;28;19912;-75
2022/01/29 02:07:01;;;;;;;;;;;;;;;;;;5115497;28;19924;-72
2022/01/29 02:09:27;;;;;;;;;;;;;;;;;;5115716;28;20010;-71
2022/01/29 02:11:54;;;;;;;;;;;;;;;;;;5115578;28;20019;-78
2022/01/29 02:14:20;;;;;;;;;;;;;;;;;;5115567;28;19924;-71
2022/01/29 02:16:46;;;;;;;;;;;;;;;;;;5115488;28;19920;-76
2022/01/29 02:19:11;;;;;;;;;;;;;;;;;;5115534;28;20339;-71
2022/01/29 02:21:37;;;;;;;;;;;;;;;;;;5115237;28;19923;-74
2022/01/29 02:24:03;;;;;;;;;;;;;;;;;;5115357;28;19915;-77
2022/01/29 02:26:28;;;;;;;;;;;;;;;;;;5115353;28;20375;-78
2022/01/29 02:28:55;;;;;;;;;;;;;;;;;;5115291;28;19957;-79
2022/01/29 02:31:20;;;;;;;;;;;;;;;;;;5115369;28;19916;-72
2022/01/29 02:33:46;;;;;;;;;;;;;;;;;;5115287;28;19916;-79
2022/01/29 02:36:11;;;;;;;;;;;;;;;;;;5115077;28;20284;-79
2022/01/29 02:38:37;;;;;;;;;;;;;;;;;;5114814;28;19915;-73
2022/01/29 02:41:05;;;;;;;;;;;;;;;;;;5115039;28;19927;-78
2022/01/29 02:43:35;;;;;;;;;;;;;;;;;;5115087;28;20011;-78
2022/01/29 02:46:07;;;;;;;;;;;;;;;;;;5115189;28;19916;-78
2022/01/29 02:48:32;;;;;;;;;;;;;;;;;;5113633;28;19916;-80
2022/01/29 02:50:58;;;;;;;;;;;;;;;;;;5114729;28;19916;-73
2022/01/29 02:53:23;;;;;;;;;;;;;;;;;;5114898;28;19920;-79
2022/01/29 02:55:49;;;;;;;;;;;;;;;;;;5115009;27;19916;-73
2022/01/29 02:58:14;;;;;;;;;;;;;;;;;;5114578;28;19927;-83
2022/01/29 03:00:40;;;;;;;;;;;;;;;;;;5114654;28;20386;-78
2022/01/29 03:03:05;;;;;;;;;;;;;;;;;;5114596;28;19923;-73
2022/01/29 03:05:31;;;;;;;;;;;;;;;;;;5114446;28;19912;-81
2022/01/29 03:07:56;;;;;;;;;;;;;;;;;;5114378;28;19926;-74
2022/01/29 03:10:23;;;;;;;;;;;;;;;;;;5114575;28;19915;-75
2022/01/29 03:12:48;;;;;;;;;;;;;;;;;;5114760;28;19942;-78
2022/01/29 03:15:14;;;;;;;;;;;;;;;;;;5114362;28;19919;-76
2022/01/29 03:17:39;;;;;;;;;;;;;;;;;;5114360;28;19916;-72
2022/01/29 03:20:05;;;;;;;;;;;;;;;;;;5114396;28;19922;-73
2022/01/29 03:22:31;;;;;;;;;;;;;;;;;;5113173;28;20322;-79
2022/01/29 03:24:56;;;;;;;;;;;;;;;;;;5115532;28;19912;-73
2022/01/29 03:27:22;;;;;;;;;;;;;;;;;;5115447;28;19916;-72
2022/01/29 03:29:47;;;;;;;;;;;;;;;;;;5125199;28;20375;-75
2022/01/29 03:32:13;;;;;;;;;;;;;;;;;;5133994;28;19916;-72
2022/01/29 03:34:38;;;;;;;;;;;;;;;;;;5123275;28;20294;-73
2022/01/29 03:37:04;;;;;;;;;;;;;;;;;;5115883;28;19916;-73
2022/01/29 03:39:30;;;;;;;;;;;;;;;;;;5115838;28;20380;-71
2022/01/29 03:42:02;;;;;;;;;;;;;;;;;;5112054;28;20379;-72
2022/01/29 03:44:28;;;;;;;;;;;;;;;;;;5094006;28;20362;-73
2022/01/29 03:46:53;;;;;;;;;;;;;;;;;;5106533;28;19959;-77
2022/01/29 03:49:18;;;;;;;;;;;;;;;;;;5109057;28;20357;-78
2022/01/29 03:51:44;;;;;;;;;;;;;;;;;;5109286;28;19920;-75
2022/01/29 03:54:09;;;;;;;;;;;;;;;;;;5100861;28;19924;-79
2022/01/29 03:56:35;;;;;;;;;;;;;;;;;;5099975;28;20003;-74
2022/01/29 03:59:00;;;;;;;;;;;;;;;;;;5107207;28;19926;-81
2022/01/29 04:01:25;;;;;;;;;;;;;;;;;;5109307;28;20270;-72
2022/01/29 04:03:51;;;;;;;;;;;;;;;;;;5106515;28;19926;-75
2022/01/29 04:06:16;;;;;;;;;;;;;;;;;;5106974;28;20442;-72
2022/01/29 04:08:43;;;;;;;;;;;;;;;;;;5109300;28;19930;-79
2022/01/29 04:11:11;;;;;;;;;;;;;;;;;;5104065;28;19922;-74
2022/01/29 04:13:38;;;;;;;;;;;;;;;;;;5112879;28;19969;-82
2022/01/29 04:16:03;;;;;;;;;;;;;;;;;;5113176;28;19920;-79
2022/01/29 04:18:29;;;;;;;;;;;;;;;;;;5114782;28;19920;-76
2022/01/29 04:20:54;;;;;;;;;;;;;;;;;;5115584;28;19975;-77
2022/01/29 04:23:20;;;;;;;;;;;;;;;;;;5116325;28;19915;-84
2022/01/29 04:25:45;;;;;;;;;;;;;;;;;;5116861;28;20018;-76
2022/01/29 04:28:12;;;;;;;;;;;;;;;;;;5114465;28;19915;-80
2022/01/29 04:30:48;;;;;;;;;;;;;;;;;;5112935;28;19923;-82
2022/01/29 04:35:48;;;;;;;;;;;;;;;;;;5116617;28;20035;-83
2022/01/29 04:38:14;;;;;;;;;;;;;;;;;;5114953;28;20391;-83
2022/01/29 04:40:39;;;;;;;;;;;;;;;;;;5110804;28;19972;-80
2022/01/29 04:43:05;;;;;;;;;;;;;;;;;;5112128;28;20048;-84
2022/01/29 04:45:31;;;;;;;;;;;;;;;;;;5111465;28;19923;-76
2022/01/29 04:47:56;;;;;;;;;;;;;;;;;;5111948;28;19991;-82
2022/01/29 04:50:22;;;;;;;;;;;;;;;;;;5110042;28;19977;-79
2022/01/29 04:52:47;;;;;;;;;;;;;;;;;;5111707;28;20396;-72
2022/01/29 04:55:13;;;;;;;;;;;;;;;;;;5109791;28;20656;-78
2022/01/29 04:57:40;;;;;;;;;;;;;;;;;;5111187;28;19920;-82
2022/01/29 05:00:20;;;;;;;;;;;;;;;;;;5113738;28;20263;-71
2022/01/29 05:02:53;;;;;;;;;;;;;;;;;;5113200;28;20338;-84
2022/01/29 05:05:19;;;;;;;;;;;;;;;;;;5115393;28;19916;-83
2022/01/29 05:07:44;;;;;;;;;;;;;;;;;;5115861;28;20006;-83
2022/01/29 05:10:10;;;;;;;;;;;;;;;;;;5115202;28;20007;-80
2022/01/29 05:12:59;;;;;;;;;;;;;;;;;;5116016;28;20350;-83
2022/01/29 05:15:34;;;;;;;;;;;;;;;;;;5115915;28;19960;-84
2022/01/29 05:28:56;;;;;;;;;;;;;;;;;;5112998;28;19973;-81
2022/01/29 05:31:21;;;;;;;;;;;;;;;;;;5114162;28;19920;-77
2022/01/29 05:33:47;;;;;;;;;;;;;;;;;;5115431;28;19916;-72
2022/01/29 05:36:12;;;;;;;;;;;;;;;;;;5112709;28;19920;-85
2022/01/29 05:38:37;;;;;;;;;;;;;;;;;;5110153;28;19963;-81
2022/01/29 05:41:03;;;;;;;;;;;;;;;;;;5112079;28;19923;-82
2022/01/29 05:43:29;;;;;;;;;;;;;;;;;;5115327;28;19916;-86
2022/01/29 05:45:55;;;;;;;;;;;;;;;;;;5115415;28;19965;-84
2022/01/29 05:48:20;;;;;;;;;;;;;;;;;;5115352;28;20064;-81
2022/01/29 05:50:45;;;;;;;;;;;;;;;;;;5115308;28;20014;-84
2022/01/29 05:53:11;;;;;;;;;;;;;;;;;;5114314;28;19920;-85
2022/01/29 05:55:36;;;;;;;;;;;;;;;;;;5115000;28;20371;-83
2022/01/29 05:58:02;;;;;;;;;;;;;;;;;;5114830;28;19952;-82
2022/01/29 06:00:27;;;;;;;;;;;;;;;;;;5113750;28;20450;-82
2022/01/29 06:03:03;;;;;;;;;;;;;;;;;;5115166;28;19943;-82
2022/01/29 06:05:29;;;;;;;;;;;;;;;;;;5113741;28;19922;-82
2022/01/29 06:07:55;;;;;;;;;;;;;;;;;;5114734;27;19927;-83
2022/01/29 06:10:20;;;;;;;;;;;;;;;;;;5114901;28;20368;-77
2022/01/29 06:12:56;;;;;;;;;;;;;;;;;;5112426;28;19965;-83
2022/01/29 06:15:21;;;;;;;;;;;;;;;;;;5113275;28;20397;-77
2022/01/29 06:17:46;;;;;;;;;;;;;;;;;;5113153;28;19919;-76
2022/01/29 06:20:12;;;;;;;;;;;;;;;;;;5110550;28;19924;-74
2022/01/29 06:22:40;;;;;;;;;;;;;;;;;;5108488;28;19920;-78
2022/01/29 06:25:06;;;;;;;;;;;;;;;;;;5108398;28;20450;-75
2022/01/29 06:27:31;;;;;;;;;;;;;;;;;;5107342;28;20018;-79
2022/01/29 06:29:56;;;;;;;;;;;;;;;;;;5109065;28;19920;-76
2022/01/29 06:32:22;;;;;;;;;;;;;;;;;;5107084;28;19926;-80
2022/01/29 06:34:47;;;;;;;;;;;;;;;;;;5111183;28;19920;-76
2022/01/29 06:37:13;;;;;;;;;;;;;;;;;;5113779;28;19916;-82
2022/01/29 06:39:38;;;;;;;;;;;;;;;;;;5113343;28;19916;-82
2022/01/29 06:42:04;;;;;;;;;;;;;;;;;;5114302;28;19923;-81
2022/01/29 06:44:29;;;;;;;;;;;;;;;;;;5113699;28;19916;-82
2022/01/29 06:46:54;;;;;;;;;;;;;;;;;;5114021;28;20040;-82
2022/01/29 06:49:20;;;;;;;;;;;;;;;;;;5113940;28;19916;-78
2022/01/29 06:51:45;;;;;;;;;;;;;;;;;;5113843;28;19965;-78
2022/01/29 06:54:11;;;;;;;;;;;;;;;;;;5113117;28;19927;-83
2022/01/29 06:56:36;;;;;;;;;;;;;;;;;;5114048;28;19981;-74
2022/01/29 06:59:02;;;;;;;;;;;;;;;;;;5111201;28;20064;-79
2022/01/29 07:01:28;;;;;;;;;;;;;;;;;;5113088;28;20371;-80
2022/01/29 07:03:53;;;;;;;;;;;;;;;;;;5112795;28;19977;-80
2022/01/29 07:06:18;;;;;;;;;;;;;;;;;;5112309;28;19920;-80
2022/01/29 07:08:44;;;;;;;;;;;;;;;;;;5112843;28;20297;-75
2022/01/29 07:11:09;;;;;;;;;;;;;;;;;;5114558;28;19961;-75
2022/01/29 07:13:36;;;;;;;;;;;;;;;;;;5127978;28;19908;-73
2022/01/29 07:16:01;;;;;;;;;;;;;;;;;;5133298;28;19920;-82
2022/01/29 07:18:26;;;;;;;;;;;;;;;;;;5110043;28;19976;-75
2022/01/29 07:20:52;;;;;;;;;;;;;;;;;;5114179;28;19981;-78
2022/01/29 07:23:17;;;;;;;;;;;;;;;;;;5112042;28;19919;-79
2022/01/29 07:25:43;;;;;;;;;;;;;;;;;;5107021;28;21452;-76
2022/01/29 07:28:08;;;;;;;;;;;;;;;;;;5106903;28;20054;-75
2022/01/29 07:30:34;;;;;;;;;;;;;;;;;;5106459;28;19934;-75
2022/01/29 07:32:59;;;;;;;;;;;;;;;;;;5111112;28;19927;-74
2022/01/29 07:35:24;;;;;;;;;;;;;;;;;;5107270;28;19926;-75
2022/01/29 07:37:50;;;;;;;;;;;;;;;;;;5108955;28;19934;-75
2022/01/29 07:40:15;;;;;;;;;;;;;;;;;;5110521;28;21262;-75
2022/01/29 07:42:41;;;;;;;;;;;;;;;;;;5109067;28;20295;-75
2022/01/29 07:45:06;;;;;;;;;;;;;;;;;;5108912;28;19981;-76
2022/01/29 07:47:33;;;;;;;;;;;;;;;;;;5107046;28;19927;-74
2022/01/29 07:49:58;;;;;;;;;;;;;;;;;;5104761;28;19939;-74
2022/01/29 07:52:24;;;;;;;;;;;;;;;;;;5106537;28;19956;-75
2022/01/29 07:54:49;;;;;;;;;;;;;;;;;;5115284;28;20022;-77
2022/01/29 07:57:15;;;;;;;;;;;;;;;;;;5116107;28;19927;-77
2022/01/29 07:59:40;;;;;;;;;;;;;;;;;;5114981;28;19912;-77
2022/01/29 08:02:06;;;;;;;;;;;;;;;;;;5115469;28;19920;-78
2022/01/29 08:04:31;;;;;;;;;;;;;;;;;;5116324;28;20290;-77
2022/01/29 08:06:57;;;;;;;;;;;;;;;;;;5115675;28;19923;-78
2022/01/29 08:09:22;;;;;;;;;;;;;;;;;;5116856;28;19923;-78
2022/01/29 08:11:47;;;;;;;;;;;;;;;;;;5117127;28;19922;-77
2022/01/29 08:14:13;;;;;;;;;;;;;;;;;;5116221;28;20011;-78
2022/01/29 08:16:39;;;;;;;;;;;;;;;;;;5112628;28;19927;-76
2022/01/29 08:19:04;;;;;;;;;;;;;;;;;;5111936;28;20366;-78
2022/01/29 08:21:30;;;;;;;;;;;;;;;;;;5114300;28;19919;-78
2022/01/29 08:23:55;;;;;;;;;;;;;;;;;;5110295;28;19930;-74
2022/01/29 08:26:20;;;;;;;;;;;;;;;;;;5115075;28;19965;-79
2022/01/29 08:28:46;;;;;;;;;;;;;;;;;;5113585;28;19972;-77
2022/01/29 08:31:11;;;;;;;;;;;;;;;;;;5115743;28;19928;-78
2022/01/29 08:33:37;;;;;;;;;;;;;;;;;;5116704;28;19978;-77
2022/01/29 08:36:03;;;;;;;;;;;;;;;;;;5116590;28;19923;-77
2022/01/29 08:38:29;;;;;;;;;;;;;;;;;;5116441;28;19916;-78
2022/01/29 08:40:55;;;;;;;;;;;;;;;;;;5115256;28;19919;-78
2022/01/29 08:43:21;;;;;;;;;;;;;;;;;;5114690;28;20016;-82
2022/01/29 08:45:48;;;;;;;;;;;;;;;;;;5112696;28;19938;-79
2022/01/29 08:48:13;;;;;;;;;;;;;;;;;;5112582;28;19931;-78
2022/01/29 08:50:38;;;;;;;;;;;;;;;;;;5113129;28;20276;-77
2022/01/29 08:53:04;;;;;;;;;;;;;;;;;;5111875;28;19924;-75
2022/01/29 08:55:36;;;;;;;;;;;;;;;;;;5112489;28;20276;-80
2022/01/29 08:58:01;;;;;;;;;;;;;;;;;;5115542;28;20375;-83
2022/01/29 09:00:27;;;;;;;;;;;;;;;;;;5115525;28;19972;-78
2022/01/29 09:02:52;;;;;;;;;;;;;;;;;;5115094;28;19920;-73
2022/01/29 09:05:18;;;;;;;;;;;;;;;;;;5115625;28;19930;-72
2022/01/29 09:07:44;;;;;;;;;;;;;;;;;;5114904;28;20306;-73
2022/01/29 09:10:12;;;;;;;;;;;;;;;;;;5114081;28;19920;-73
2022/01/29 09:12:37;;;;;;;;;;;;;;;;;;5115057;28;19916;-78
2022/01/29 09:15:03;;;;;;;;;;;;;;;;;;5113526;28;20017;-78
2022/01/29 09:17:28;;;;;;;;;;;;;;;;;;5112951;28;20306;-77
2022/01/29 09:19:54;;;;;;;;;;;;;;;;;;5109948;28;20337;-73
2022/01/29 09:22:19;;;;;;;;;;;;;;;;;;5110219;28;19962;-76
2022/01/29 09:24:45;;;;;;;;;;;;;;;;;;5110944;28;19967;-76
2022/01/29 09:27:10;;;;;;;;;;;;;;;;;;5109768;28;19924;-78
2022/01/29 09:29:36;;;;;;;;;;;;;;;;;;5110114;28;19988;-75
2022/01/29 09:32:02;;;;;;;;;;;;;;;;;;5113889;28;19916;-78
2022/01/29 09:34:28;;;;;;;;;;;;;;;;;;5110740;28;19928;-73
2022/01/29 09:36:53;;;;;;;;;;;;;;;;;;5114278;28;19983;-79
2022/01/29 09:39:18;;;;;;;;;;;;;;;;;;5114274;28;20002;-78
2022/01/29 09:41:45;;;;;;;;;;;;;;;;;;5113957;28;19967;-73
2022/01/29 09:44:11;;;;;;;;;;;;;;;;;;5113857;28;19920;-78
2022/01/29 09:46:37;;;;;;;;;;;;;;;;;;5111261;28;19950;-75
2022/01/29 09:49:03;;;;;;;;;;;;;;;;;;5113017;28;19927;-78
2022/01/29 09:51:30;;;;;;;;;;;;;;;;;;5113156;28;19920;-73
2022/01/29 09:53:56;;;;;;;;;;;;;;;;;;5111268;28;19943;-78
2022/01/29 09:56:25;;;;;;;;;;;;;;;;;;5111597;28;19920;-79
2022/01/29 09:58:50;;;;;;;;;;;;;;;;;;5113748;28;20380;-79
2022/01/29 10:01:16;;;;;;;;;;;;;;;;;;5114027;28;19920;-74
2022/01/29 10:03:41;;;;;;;;;;;;;;;;;;5113988;28;19927;-73
2022/01/29 10:06:13;;;;;;;;;;;;;;;;;;5114203;28;19915;-77
2022/01/29 10:08:42;;;;;;;;;;;;;;;;;;5114214;28;20324;-75
2022/01/29 10:11:18;;;;;;;;;;;;;;;;;;5114859;28;19955;-75
2022/01/29 10:13:44;;;;;;;;;;;;;;;;;;5114087;28;19916;-74
2022/01/29 10:16:28;;;;;;;;;;;;;;;;;;5104480;28;19974;-75
2022/01/29 10:19:01;;;;;;;;;;;;;;;;;;5102685;28;19959;-75
2022/01/29 10:21:29;;;;;;;;;;;;;;;;;;5107154;28;19924;-75
2022/01/29 10:24:04;;;;;;;;;;;;;;;;;;5109952;28;19919;-74
2022/01/29 10:26:31;;;;;;;;;;;;;;;;;;5114030;28;19934;-76
2022/01/29 10:28:57;;;;;;;;;;;;;;;;;;5114092;28;19926;-78
2022/01/29 10:31:22;;;;;;;;;;;;;;;;;;5115608;28;20290;-77
2022/01/29 10:33:48;;;;;;;;;;;;;;;;;;5115399;28;19926;-78
2022/01/29 10:36:14;;;;;;;;;;;;;;;;;;5114180;28;19964;-76
2022/01/29 10:38:40;;;;;;;;;;;;;;;;;;5114993;28;20003;-77
2022/01/29 10:41:11;;;;;;;;;;;;;;;;;;5115096;28;20405;-76
2022/01/29 10:43:55;;;;;;;;;;;;;;;;;;5116146;28;20036;-75
2022/01/29 10:46:25;;;;;;;;;;;;;;;;;;5115433;28;19916;-77
2022/01/29 10:48:50;;;;;;;;;;;;;;;;;;5115323;28;19922;-77
2022/01/29 10:51:15;;;;;;;;;;;;;;;;;;5122131;28;19896;-73
2022/01/29 10:53:41;;;;;;;;;;;;;;;;;;5128532;28;19927;-73
2022/01/29 10:56:06;;;;;;;;;;;;;;;;;;5136179;28;19951;-75
2022/01/29 10:58:42;;;;;;;;;;;;;;;;;;5130397;28;19923;-74
2022/01/29 11:01:15;;;;;;;;;;;;;;;;;;5115370;28;19967;-75
2022/01/29 11:03:40;;;;;;;;;;;;;;;;;;5115106;28;19951;-78
2022/01/29 11:06:07;;;;;;;;;;;;;;;;;;5114883;28;19955;-76
2022/01/29 11:08:33;;;;;;;;;;;;;;;;;;5114777;28;20390;-77
2022/01/29 11:10:58;;;;;;;;;;;;;;;;;;5113644;28;19951;-79
2022/01/29 11:13:27;;;;;;;;;;;;;;;;;;5113702;28;20209;-78
2022/01/29 11:15:53;;;;;;;;;;;;;;;;;;5114505;28;20418;-74
2022/01/29 11:18:19;;;;;;;;;;;;;;;;;;5114293;28;19927;-77
2022/01/29 11:20:44;;;;;;;;;;;;;;;;;;5112211;28;19915;-80
2022/01/29 11:23:10;;;;;;;;;;;;;;;;;;5113625;28;20391;-78
2022/01/29 11:25:36;;;;;;;;;;;;;;;;;;5113680;28;19923;-78
2022/01/29 11:28:11;;;;;;;;;;;;;;;;;;5113547;28;19968;-77
2022/01/29 11:30:36;;;;;;;;;;;;;;;;;;5113541;28;19959;-80
2022/01/29 11:33:01;;;;;;;;;;;;;;;;;;5114009;28;19954;-79
2022/01/29 11:35:31;;;;;;;;;;;;;;;;;;5114192;28;19959;-80
2022/01/29 11:38:02;;;;;;;;;;;;;;;;;;5113660;28;19916;-74
2022/01/29 11:40:46;;;;;;;;;;;;;;;;;;5113544;28;19969;-77
2022/01/29 11:43:15;;;;;;;;;;;;;;;;;;5114010;28;19973;-77
2022/01/29 11:45:49;;;;;;;;;;;;;;;;;;5113933;28;19916;-81
2022/01/29 11:49:09;;;;;;;;;;;;;;;;;;5114014;28;20386;-80
2022/01/29 11:51:10;;;;;;;;;;;;;;;;;;5106407;28;19952;-78
2022/01/29 11:53:44;;;;;;;;;;;;;;;;;;5114101;28;19919;-77
2022/01/29 11:56:25;;;;;;;;;;;;;;;;;;5113603;28;19916;-78
2022/01/29 11:59:10;;;;;;;;;;;;;;;;;;5113996;28;19919;-78
2022/01/29 12:01:36;;;;;;;;;;;;;;;;;;5113935;28;20402;-76
2022/01/29 12:04:01;;;;;;;;;;;;;;;;;;5113855;28;19948;-78
2022/01/29 12:06:30;;;;;;;;;;;;;;;;;;5112403;28;19967;-75
2022/01/29 12:09:21;;;;;;;;;;;;;;;;;;5111596;28;19924;-78
2022/01/29 12:12:06;;;;;;;;;;;;;;;;;;5111032;28;19927;-74
2022/01/29 12:14:32;;;;;;;;;;;;;;;;;;5100123;28;19927;-77
2022/01/29 12:16:59;;;;;;;;;;;;;;;;;;5113438;28;20282;-76
2022/01/29 12:19:43;;;;;;;;;;;;;;;;;;5115114;28;20378;-76
2022/01/29 12:22:12;;;;;;;;;;;;;;;;;;5114695;28;19955;-76
2022/01/29 12:24:38;;;;;;;;;;;;;;;;;;5114329;28;20287;-73
2022/01/29 12:27:04;;;;;;;;;;;;;;;;;;5116950;28;19967;-73
2022/01/29 12:29:30;;;;;;;;;;;;;;;;;;5116550;28;19923;-74
2022/01/29 12:31:57;;;;;;;;;;;;;;;;;;5114588;28;19920;-77
2022/01/29 12:34:24;;;;;;;;;;;;;;;;;;5113586;28;19920;-78
2022/01/29 12:36:50;;;;;;;;;;;;;;;;;;5113573;28;20294;-77
2022/01/29 12:39:25;;;;;;;;;;;;;;;;;;5117589;28;19923;-78
2022/01/29 12:42:01;;;;;;;;;;;;;;;;;;5117482;28;19916;-78
2022/01/29 12:44:26;;;;;;;;;;;;;;;;;;5117481;28;20366;-77
2022/01/29 12:46:52;;;;;;;;;;;;;;;;;;5117369;28;19915;-79
2022/01/29 12:49:17;;;;;;;;;;;;;;;;;;5117251;28;20351;-79
2022/01/29 12:51:54;;;;;;;;;;;;;;;;;;5117239;28;20430;-80
2022/01/29 12:54:20;;;;;;;;;;;;;;;;;;5117387;28;20546;-78
2022/01/29 12:56:45;;;;;;;;;;;;;;;;;;5117463;28;19960;-78
2022/01/29 12:59:12;;;;;;;;;;;;;;;;;;5117188;28;19920;-78
2022/01/29 13:01:38;;;;;;;;;;;;;;;;;;5117098;28;19966;-78
2022/01/29 13:04:13;;;;;;;;;;;;;;;;;;5116943;28;19961;-78
2022/01/29 13:06:39;;;;;;;;;;;;;;;;;;5117343;28;19967;-78
2022/01/29 13:09:15;;;;;;;;;;;;;;;;;;5116224;28;19959;-79
2022/01/29 13:11:40;;;;;;;;;;;;;;;;;;5116859;28;19919;-79
2022/01/29 13:14:14;;;;;;;;;;;;;;;;;;5116785;28;19916;-78
2022/01/29 13:16:39;;;;;;;;;;;;;;;;;;5116266;28;19927;-79
2022/01/29 13:19:05;;;;;;;;;;;;;;;;;;5116658;28;19916;-74
2022/01/29 13:21:31;;;;;;;;;;;;;;;;;;5116645;28;20007;-76
2022/01/29 13:23:57;;;;;;;;;;;;;;;;;;5113947;28;19965;-78
2022/01/29 13:26:29;;;;;;;;;;;;;;;;;;5116851;28;20422;-77
2022/01/29 13:28:59;;;;;;;;;;;;;;;;;;5116736;28;20011;-78
2022/01/29 13:31:26;;;;;;;;;;;;;;;;;;5116370;28;19923;-76
2022/01/29 13:33:51;;;;;;;;;;;;;;;;;;5115558;28;20037;-72
2022/01/29 13:36:29;;;;;;;;;;;;;;;;;;5116220;28;20018;-72
2022/01/29 13:39:07;;;;;;;;;;;;;;;;;;5116219;28;19919;-77
2022/01/29 13:41:32;;;;;;;;;;;;;;;;;;5115991;28;19919;-75
2022/01/29 13:44:06;;;;;;;;;;;;;;;;;;5116124;28;19915;-77
2022/01/29 13:46:32;;;;;;;;;;;;;;;;;;5116535;28;19998;-75
2022/01/29 13:48:58;;;;;;;;;;;;;;;;;;5113525;28;20379;-77
2022/01/29 13:51:30;;;;;;;;;;;;;;;;;;5115777;28;19926;-76
2022/01/29 13:53:58;;;;;;;;;;;;;;;;;;5116340;28;20367;-79
2022/01/29 13:56:24;;;;;;;;;;;;;;;;;;5115964;28;19919;-77
2022/01/29 13:58:54;;;;;;;;;;;;;;;;;;5115967;28;19916;-75
2022/01/29 14:01:38;;;;;;;;;;;;;;;;;;5115813;28;19922;-78
2022/01/29 14:04:08;;;;;;;;;;;;;;;;;;5115824;28;20383;-78
2022/01/29 14:06:53;;;;;;;;;;;;;;;;;;5114451;28;19920;-78
2022/01/29 14:09:36;;;;;;;;;;;;;;;;;;5115770;28;20356;-79
2022/01/29 14:12:12;;;;;;;;;;;;;;;;;;5115713;28;20006;-72
2022/01/29 14:14:39;;;;;;;;;;;;;;;;;;5115732;28;19916;-77
2022/01/29 14:17:14;;;;;;;;;;;;;;;;;;5115316;27;20298;-78
2022/01/29 14:19:40;;;;;;;;;;;;;;;;;;5115533;28;20393;-80
2022/01/29 14:22:07;;;;;;;;;;;;;;;;;;5114968;28;19923;-74
2022/01/29 14:24:33;;;;;;;;;;;;;;;;;;5114603;28;19920;-77
2022/01/29 14:26:58;;;;;;;;;;;;;;;;;;5114718;28;19973;-78
2022/01/29 14:29:24;;;;;;;;;;;;;;;;;;5115025;28;20353;-76
2022/01/29 14:31:50;;;;;;;;;;;;;;;;;;5117508;28;19919;-75
2022/01/29 14:34:15;;;;;;;;;;;;;;;;;;5119321;27;19920;-73
2022/01/29 14:36:41;;;;;;;;;;;;;;;;;;5135409;28;19935;-73
2022/01/29 14:39:07;;;;;;;;;;;;;;;;;;5128378;28;20012;-77
2022/01/29 14:41:34;;;;;;;;;;;;;;;;;;5115578;28;19923;-74
2022/01/29 14:43:59;;;;;;;;;;;;;;;;;;5115460;28;19915;-76
2022/01/29 14:46:25;;;;;;;;;;;;;;;;;;5113938;28;20412;-75
2022/01/29 14:48:52;;;;;;;;;;;;;;;;;;5114336;28;19915;-76
2022/01/29 14:51:22;;;;;;;;;;;;;;;;;;5110242;28;19922;-75
2022/01/29 14:53:48;;;;;;;;;;;;;;;;;;5108386;28;19920;-77
2022/01/29 14:56:13;;;;;;;;;;;;;;;;;;5108212;28;20295;-77
2022/01/29 14:58:39;;;;;;;;;;;;;;;;;;5108586;28;19920;-77
2022/01/29 15:01:05;;;;;;;;;;;;;;;;;;5108832;28;20297;-76
2022/01/29 15:03:30;;;;;;;;;;;;;;;;;;5109937;28;19919;-77
2022/01/29 15:05:56;;;;;;;;;;;;;;;;;;5109036;28;20480;-78
2022/01/29 15:08:22;;;;;;;;;;;;;;;;;;5112873;28;19924;-77
2022/01/29 15:10:48;;;;;;;;;;;;;;;;;;5112236;28;19920;-76
2022/01/29 15:13:15;;;;;;;;;;;;;;;;;;5113130;28;19916;-74
2022/01/29 15:15:43;;;;;;;;;;;;;;;;;;5113209;28;20383;-75
2022/01/29 15:18:09;;;;;;;;;;;;;;;;;;5112796;28;19916;-74
2022/01/29 15:20:34;;;;;;;;;;;;;;;;;;5108398;28;19930;-77
2022/01/29 15:23:02;;;;;;;;;;;;;;;;;;5110812;28;19980;-77
2022/01/29 15:25:28;;;;;;;;;;;;;;;;;;5111142;28;20007;-76
2022/01/29 15:27:54;;;;;;;;;;;;;;;;;;5108481;28;20383;-77
2022/01/29 15:30:20;;;;;;;;;;;;;;;;;;5111942;28;19924;-72
2022/01/29 15:32:48;;;;;;;;;;;;;;;;;;5112798;28;19968;-75
2022/01/29 15:35:14;;;;;;;;;;;;;;;;;;5111179;28;19928;-75
2022/01/29 15:37:40;;;;;;;;;;;;;;;;;;5112820;28;19916;-75
2022/01/29 15:40:06;;;;;;;;;;;;;;;;;;5111878;28;19916;-75
2022/01/29 15:42:32;;;;;;;;;;;;;;;;;;5112550;28;20374;-74
2022/01/29 15:44:57;;;;;;;;;;;;;;;;;;5112700;28;19916;-76
2022/01/29 15:47:23;;;;;;;;;;;;;;;;;;5112739;28;19923;-77
2022/01/29 15:49:48;;;;;;;;;;;;;;;;;;5112703;28;19916;-78
2022/01/29 15:52:14;;;;;;;;;;;;;;;;;;5114778;28;20393;-73
2022/01/29 15:54:39;;;;;;;;;;;;;;;;;;5111370;28;19915;-74
2022/01/29 15:57:05;;;;;;;;;;;;;;;;;;5111214;28;19965;-76
2022/01/29 15:59:30;;;;;;;;;;;;;;;;;;5112578;28;19926;-76
2022/01/29 16:01:58;;;;;;;;;;;;;;;;;;5112573;28;19923;-77
2022/01/29 16:04:23;;;;;;;;;;;;;;;;;;5111732;28;19965;-76
2022/01/29 16:06:49;;;;;;;;;;;;;;;;;;5107980;28;19931;-76
2022/01/29 16:09:14;;;;;;;;;;;;;;;;;;5104000;28;19931;-77
2022/01/29 16:11:40;;;;;;;;;;;;;;;;;;5099289;28;19928;-73
2022/01/29 16:14:05;;;;;;;;;;;;;;;;;;5103834;28;19920;-75
2022/01/29 16:16:31;;;;;;;;;;;;;;;;;;5108583;28;19924;-75
2022/01/29 16:18:56;;;;;;;;;;;;;;;;;;5110370;28;20006;-75
2022/01/29 16:21:22;;;;;;;;;;;;;;;;;;5109534;28;19924;-76
2022/01/29 16:23:48;;;;;;;;;;;;;;;;;;5112152;28;19920;-75
2022/01/29 16:26:13;;;;;;;;;;;;;;;;;;5104789;28;19923;-73
2022/01/29 16:28:39;;;;;;;;;;;;;;;;;;5108846;28;20017;-75
2022/01/29 16:31:04;;;;;;;;;;;;;;;;;;5109424;28;19923;-75
2022/01/29 16:33:30;;;;;;;;;;;;;;;;;;5105897;28;19930;-74
2022/01/29 16:35:55;;;;;;;;;;;;;;;;;;5107189;28;19926;-74
2022/01/29 16:38:21;;;;;;;;;;;;;;;;;;5106164;28;20460;-75
2022/01/29 16:40:46;;;;;;;;;;;;;;;;;;5110303;28;19927;-75
2022/01/29 16:43:12;;;;;;;;;;;;;;;;;;5115397;28;19920;-74
2022/01/29 16:45:39;;;;;;;;;;;;;;;;;;5112886;28;19919;-77
2022/01/29 16:48:09;;;;;;;;;;;;;;;;;;5117632;28;19919;-76
2022/01/29 16:50:36;;;;;;;;;;;;;;;;;;5116886;28;19954;-76
2022/01/29 16:53:01;;;;;;;;;;;;;;;;;;5116990;28;20014;-76
2022/01/29 16:55:26;;;;;;;;;;;;;;;;;;5116362;28;20058;-77
2022/01/29 16:57:55;;;;;;;;;;;;;;;;;;5114170;28;19924;-79